Time;durP1;ratioP1;P1;durP2;ratioP2;P2;SDS_P1;SDS_P2;PMS_P1;PMS_P2;Temp;Humidity;BMP_temperature;BMP_pressure;BME280_temperature;BME280_humidity;BME280_pressure;Samples;Min_cycle;Max_cycle;Signal;HPM_P1;HPM_P2
2023/08/03 00:00:22;;;;;;;2.65;1.05;;;21.00;70.00;;;;;;5027916;28;20029;-50
2023/08/03 00:02:48;;;;;;;1.70;0.90;;;20.90;70.10;;;;;;5029740;28;20037;-49
2023/08/03 00:05:19;;;;;;;2.38;0.77;;;21.00;70.10;;;;;;5023723;28;20021;-50
2023/08/03 00:07:46;;;;;;;1.88;0.82;;;20.90;70.00;;;;;;5027257;28;20502;-50
2023/08/03 00:10:11;;;;;;;3.15;1.30;;;21.00;70.10;;;;;;5023098;28;20029;-53
2023/08/03 00:12:37;;;;;;;2.55;1.00;;;21.00;70.00;;;;;;5024417;28;20029;-51
2023/08/03 00:15:03;;;;;;;1.17;0.90;;;21.00;70.00;;;;;;5017085;28;20026;-49
2023/08/03 00:17:28;;;;;;;2.30;0.95;;;21.00;70.00;;;;;;5022888;28;20033;-51
2023/08/03 00:19:54;;;;;;;1.80;1.13;;;21.00;70.10;;;;;;5028168;28;20360;-51
2023/08/03 00:22:20;;;;;;;1.73;1.02;;;21.00;70.00;;;;;;5031299;28;20393;-51
2023/08/03 00:24:45;;;;;;;1.85;0.90;;;21.00;70.10;;;;;;5011282;28;20029;-50
2023/08/03 00:27:11;;;;;;;1.48;0.88;;;21.00;70.10;;;;;;5027645;28;20040;-51
2023/08/03 00:29:36;;;;;;;1.95;1.00;;;20.90;70.00;;;;;;5019229;28;20056;-49
2023/08/03 00:32:02;;;;;;;2.28;0.93;;;20.90;70.00;;;;;;5015867;28;20021;-51
2023/08/03 00:34:31;;;;;;;1.60;0.63;;;21.00;70.00;;;;;;5029247;28;20048;-49
2023/08/03 00:36:57;;;;;;;2.65;0.90;;;21.00;70.00;;;;;;5029954;28;20036;-49
2023/08/03 00:39:23;;;;;;;1.70;1.38;;;21.00;70.20;;;;;;5029036;28;20034;-57
2023/08/03 00:41:50;;;;;;;1.42;0.80;;;20.90;70.00;;;;;;5022533;28;20053;-50
2023/08/03 00:44:16;;;;;;;2.22;1.00;;;20.90;70.00;;;;;;5013895;28;20155;-49
2023/08/03 00:46:41;;;;;;;2.50;1.35;;;20.90;70.10;;;;;;5026389;28;20108;-50
2023/08/03 00:49:07;;;;;;;1.42;0.73;;;20.90;70.00;;;;;;5028384;28;20387;-51
2023/08/03 00:51:33;;;;;;;2.85;0.75;;;21.00;70.10;;;;;;5033527;28;20033;-52
2023/08/03 00:53:58;;;;;;;1.30;1.02;;;21.00;70.00;;;;;;5034529;28;20032;-50
2023/08/03 00:56:24;;;;;;;1.67;0.77;;;21.00;70.00;;;;;;5033781;28;20424;-51
2023/08/03 00:58:49;;;;;;;1.33;0.70;;;20.90;70.00;;;;;;5016784;28;20333;-51
2023/08/03 01:01:15;;;;;;;3.78;1.05;;;21.00;69.90;;;;;;5030639;28;20029;-49
2023/08/03 01:03:40;;;;;;;2.45;0.95;;;21.00;69.90;;;;;;5042923;22;20033;-53
2023/08/03 01:06:06;;;;;;;1.55;0.88;;;20.90;70.00;;;;;;5044331;28;20044;-54
2023/08/03 01:08:32;;;;;;;3.53;1.05;;;21.00;70.00;;;;;;5027712;28;20025;-55
2023/08/03 01:10:58;;;;;;;1.67;0.88;;;21.00;69.90;;;;;;5027395;28;20429;-52
2023/08/03 01:13:24;;;;;;;1.30;0.85;;;20.90;69.90;;;;;;5033855;28;20033;-56
2023/08/03 01:15:50;;;;;;;1.98;1.33;;;20.90;70.00;;;;;;5025300;28;20075;-49
2023/08/03 01:18:16;;;;;;;3.10;0.80;;;20.90;70.00;;;;;;5025135;28;20033;-49
2023/08/03 01:20:43;;;;;;;3.10;1.10;;;20.90;69.90;;;;;;5033439;28;20037;-52
2023/08/03 01:23:09;;;;;;;3.15;1.20;;;21.00;69.90;;;;;;5034258;28;20025;-52
2023/08/03 01:25:36;;;;;;;4.20;0.95;;;20.90;69.70;;;;;;5032455;28;20021;-49
2023/08/03 01:28:05;;;;;;;2.08;1.10;;;20.90;69.80;;;;;;5029289;28;20036;-47
2023/08/03 01:30:31;;;;;;;2.10;0.70;;;20.90;70.40;;;;;;5034562;28;20029;-52
2023/08/03 01:32:57;;;;;;;1.40;0.70;;;20.90;69.70;;;;;;5028814;28;20096;-51
2023/08/03 01:35:23;;;;;;;1.48;1.08;;;20.90;69.80;;;;;;5026144;28;20092;-52
2023/08/03 01:37:50;;;;;;;2.45;1.00;;;21.00;69.70;;;;;;5033526;28;20038;-52
2023/08/03 01:40:16;;;;;;;1.98;0.98;;;21.00;69.70;;;;;;5043428;28;20039;-51
2023/08/03 01:42:42;;;;;;;1.60;0.93;;;20.90;69.70;;;;;;5040937;28;20481;-50
2023/08/03 01:45:08;;;;;;;2.55;1.25;;;20.90;69.80;;;;;;5040937;28;20043;-51
2023/08/03 01:47:33;;;;;;;1.25;0.82;;;20.90;69.90;;;;;;5041064;28;20069;-50
2023/08/03 01:49:59;;;;;;;2.65;1.10;;;20.90;69.70;;;;;;5040821;28;20075;-51
2023/08/03 01:52:24;;;;;;;2.25;0.98;;;20.90;69.70;;;;;;5039359;28;20033;-52
2023/08/03 01:54:50;;;;;;;1.58;0.60;;;20.90;69.80;;;;;;5041575;28;20029;-52
2023/08/03 01:57:17;;;;;;;1.88;0.77;;;20.90;69.70;;;;;;5038216;28;20095;-49
2023/08/03 01:59:43;;;;;;;1.92;0.98;;;20.90;69.60;;;;;;5039742;28;20057;-51
2023/08/03 02:02:08;;;;;;;2.63;0.80;;;20.90;69.70;;;;;;5039596;28;20056;-48
2023/08/03 02:04:34;;;;;;;3.83;1.10;;;20.90;69.60;;;;;;5040779;28;20040;-55
2023/08/03 02:07:09;;;;;;;1.08;0.93;;;20.90;69.60;;;;;;5034416;28;20033;-50
2023/08/03 02:09:34;;;;;;;0.98;0.60;;;20.90;69.50;;;;;;5038663;28;20040;-50
2023/08/03 02:12:00;;;;;;;2.63;0.93;;;20.90;69.50;;;;;;5032500;28;20025;-51
2023/08/03 02:14:25;;;;;;;1.17;0.80;;;20.90;69.50;;;;;;5033188;28;20033;-50
2023/08/03 02:16:51;;;;;;;2.35;0.90;;;20.90;69.50;;;;;;5038660;28;20487;-50
2023/08/03 02:19:16;;;;;;;2.05;0.65;;;20.90;69.50;;;;;;5039727;28;20042;-52
2023/08/03 02:21:42;;;;;;;2.35;0.82;;;20.90;69.50;;;;;;5030505;28;20087;-47
2023/08/03 02:24:07;;;;;;;1.63;0.77;;;20.90;69.60;;;;;;5029652;28;20042;-49
2023/08/03 02:26:33;;;;;;;1.88;1.02;;;21.00;69.50;;;;;;5027725;28;20029;-50
2023/08/03 02:28:58;;;;;;;2.05;0.80;;;20.90;69.50;;;;;;5029197;28;20555;-52
2023/08/03 02:31:24;;;;;;;1.55;0.90;;;20.90;69.40;;;;;;5031063;28;20033;-50
2023/08/03 02:33:50;;;;;;;2.05;0.90;;;20.90;69.50;;;;;;5021934;28;20067;-52
2023/08/03 02:36:15;;;;;;;2.80;1.00;;;20.90;69.30;;;;;;5034758;28;20048;-49
2023/08/03 02:38:41;;;;;;;1.70;0.82;;;20.90;69.60;;;;;;5034468;28;20835;-51
2023/08/03 02:41:06;;;;;;;2.58;1.00;;;20.90;69.70;;;;;;5035943;28;20040;-49
2023/08/03 02:43:32;;;;;;;3.22;0.95;;;20.90;69.60;;;;;;5036552;28;20083;-49
2023/08/03 02:45:58;;;;;;;3.22;0.98;;;20.90;69.50;;;;;;5027410;28;20029;-52
2023/08/03 02:48:23;;;;;;;2.08;1.00;;;20.90;69.40;;;;;;5041504;28;20761;-51
2023/08/03 02:50:52;;;;;;;4.25;1.55;;;20.90;69.30;;;;;;5035730;28;20096;-52
2023/08/03 02:53:18;;;;;;;1.83;0.90;;;20.90;69.40;;;;;;5034374;28;20040;-50
2023/08/03 02:55:46;;;;;;;1.77;0.93;;;20.90;69.30;;;;;;5018861;28;20025;-49
2023/08/03 02:58:14;;;;;;;2.30;1.10;;;20.90;69.30;;;;;;5036512;28;20037;-51
2023/08/03 03:00:40;;;;;;;4.75;1.17;;;20.90;69.20;;;;;;5016193;28;20047;-52
2023/08/03 03:03:09;;;;;;;3.13;1.00;;;20.90;69.50;;;;;;5029311;28;20257;-52
2023/08/03 03:05:39;;;;;;;2.78;1.02;;;20.80;69.30;;;;;;5033136;28;20022;-49
2023/08/03 03:08:07;;;;;;;2.17;0.75;;;20.80;69.20;;;;;;5016823;28;20040;-50
2023/08/03 03:10:35;;;;;;;4.30;0.90;;;20.90;69.20;;;;;;5047902;28;20041;-48
2023/08/03 03:13:00;;;;;;;2.65;1.00;;;20.80;69.20;;;;;;5031154;28;20025;-53
2023/08/03 03:15:29;;;;;;;2.65;1.02;;;20.80;69.10;;;;;;5040315;28;20107;-56
2023/08/03 03:17:57;;;;;;;2.13;0.88;;;20.80;69.70;;;;;;5032356;28;20486;-51
2023/08/03 03:20:22;;;;;;;4.03;1.15;;;20.90;69.00;;;;;;5033644;28;20032;-51
2023/08/03 03:22:48;;;;;;;3.05;0.70;;;20.80;69.20;;;;;;5038156;28;20506;-52
2023/08/03 03:25:14;;;;;;;2.70;1.00;;;20.80;69.30;;;;;;5034527;28;20069;-49
2023/08/03 03:27:42;;;;;;;2.72;0.90;;;20.90;69.20;;;;;;5029115;28;20402;-51
2023/08/03 03:30:08;;;;;;;2.58;1.00;;;20.90;69.10;;;;;;5032760;28;20948;-50
2023/08/03 03:32:34;;;;;;;2.10;0.85;;;20.90;69.00;;;;;;5029565;28;20091;-52
2023/08/03 03:34:59;;;;;;;2.80;0.80;;;20.80;69.00;;;;;;5034355;28;20036;-49
2023/08/03 03:37:25;;;;;;;1.48;0.80;;;20.80;68.90;;;;;;5040273;28;20854;-61
2023/08/03 03:39:55;;;;;;;3.25;1.20;;;20.80;69.10;;;;;;5030481;28;20507;-51
2023/08/03 03:42:21;;;;;;;1.83;0.88;;;20.80;68.70;;;;;;5034097;28;20032;-51
2023/08/03 03:44:46;;;;;;;1.98;1.00;;;20.80;69.00;;;;;;5033472;28;20037;-51
2023/08/03 03:47:12;;;;;;;3.63;1.33;;;20.80;69.10;;;;;;5035072;28;20120;-50
2023/08/03 03:49:40;;;;;;;1.38;0.70;;;20.80;68.90;;;;;;5036210;28;20040;-47
2023/08/03 03:52:09;;;;;;;1.00;0.52;;;20.80;69.20;;;;;;5030260;28;20056;-48
2023/08/03 03:54:35;;;;;;;2.92;1.00;;;20.80;69.20;;;;;;5018832;28;20033;-53
2023/08/03 03:57:00;;;;;;;3.60;1.42;;;20.80;68.90;;;;;;5030753;28;20367;-50
2023/08/03 03:59:29;;;;;;;2.35;0.95;;;20.80;69.10;;;;;;5033000;28;20478;-47
2023/08/03 04:02:00;;;;;;;2.40;0.90;;;20.90;68.60;;;;;;5033132;28;20067;-57
2023/08/03 04:04:26;;;;;;;1.85;1.00;;;20.80;68.90;;;;;;5033572;28;20069;-49
2023/08/03 04:06:52;;;;;;;2.53;0.85;;;20.80;69.10;;;;;;5023679;28;20808;-50
2023/08/03 04:09:20;;;;;;;4.28;1.17;;;20.80;68.80;;;;;;5022294;28;20040;-51
2023/08/03 04:11:48;;;;;;;2.65;0.80;;;20.80;69.00;;;;;;5014468;28;20460;-53
2023/08/03 04:14:14;;;;;;;1.95;0.90;;;20.80;69.00;;;;;;5016205;28;20045;-52
2023/08/03 04:16:40;;;;;;;2.97;1.00;;;20.80;68.70;;;;;;4988745;28;20153;-50
2023/08/03 04:19:08;;;;;;;3.97;1.27;;;20.80;69.00;;;;;;5016531;28;20555;-50
2023/08/03 04:21:36;;;;;;;3.88;1.38;;;20.80;69.00;;;;;;5009157;28;20080;-51
2023/08/03 04:24:01;;;;;;;2.53;0.73;;;20.90;68.70;;;;;;5014080;28;20091;-52
2023/08/03 04:26:27;;;;;;;1.75;0.75;;;20.90;68.80;;;;;;5009609;28;20029;-48
2023/08/03 04:28:55;;;;;;;1.65;0.90;;;20.80;68.70;;;;;;5012506;28;20026;-49
2023/08/03 04:31:21;;;;;;;1.70;1.00;;;20.80;68.70;;;;;;5036230;28;20045;-50
2023/08/03 04:33:47;;;;;;;2.38;0.93;;;20.90;69.40;;;;;;5036537;28;20049;-54
2023/08/03 04:36:12;;;;;;;1.85;0.75;;;20.90;68.60;;;;;;5040603;28;20691;-52
2023/08/03 04:38:40;;;;;;;2.08;0.77;;;20.90;68.70;;;;;;5037035;28;20038;-52
2023/08/03 04:41:10;;;;;;;1.65;0.88;;;20.90;68.40;;;;;;5038763;28;20063;-52
2023/08/03 04:43:38;;;;;;;2.95;1.00;;;20.90;68.50;;;;;;5035810;28;20079;-50
2023/08/03 04:46:04;;;;;;;1.83;0.80;;;21.00;68.30;;;;;;5037283;28;20555;-50
2023/08/03 04:48:29;;;;;;;2.40;1.20;;;20.90;67.90;;;;;;5031495;28;20040;-49
2023/08/03 04:50:57;;;;;;;2.28;0.80;;;21.00;68.20;;;;;;5049895;28;20033;-51
2023/08/03 04:53:23;;;;;;;1.33;0.77;;;21.00;68.10;;;;;;5029000;28;20045;-52
2023/08/03 04:55:51;;;;;;;2.85;1.30;;;21.00;67.70;;;;;;5033729;28;20036;-50
2023/08/03 04:58:20;;;;;;;2.70;0.93;;;21.10;67.70;;;;;;5018284;28;20548;-54
2023/08/03 05:00:45;;;;;;;2.80;1.15;;;21.10;67.90;;;;;;5023823;28;20167;-53
2023/08/03 05:03:11;;;;;;;7.40;1.20;;;21.10;66.80;;;;;;5036650;28;20785;-52
2023/08/03 05:05:39;;;;;;;6.05;1.20;;;21.10;66.90;;;;;;5038280;28;20053;-56
2023/08/03 05:08:05;;;;;;;3.10;1.08;;;21.10;67.00;;;;;;5037936;28;20033;-53
2023/08/03 05:10:33;;;;;;;3.42;0.80;;;21.10;67.00;;;;;;5042324;28;20433;-52
2023/08/03 05:12:58;;;;;;;3.63;1.05;;;21.10;66.60;;;;;;5034303;28;20034;-50
2023/08/03 05:15:26;;;;;;;2.42;0.85;;;21.10;66.60;;;;;;5040756;28;20029;-47
2023/08/03 05:17:52;;;;;;;2.60;1.23;;;21.10;66.70;;;;;;5038908;28;20114;-52
2023/08/03 05:20:18;;;;;;;4.47;1.55;;;21.00;67.00;;;;;;5026255;28;20245;-50
2023/08/03 05:22:43;;;;;;;3.28;1.10;;;21.00;66.80;;;;;;5041768;28;20033;-50
2023/08/03 05:25:09;;;;;;;5.63;1.05;;;21.00;66.60;;;;;;5037686;28;20922;-52
2023/08/03 05:27:35;;;;;;;2.03;0.70;;;21.00;66.60;;;;;;5036873;28;20056;-51
2023/08/03 05:30:00;;;;;;;6.35;0.82;;;21.10;66.90;;;;;;5037067;28;20032;-52
2023/08/03 05:32:26;;;;;;;4.40;1.55;;;21.10;67.20;;;;;;5038461;28;20442;-55
2023/08/03 05:34:51;;;;;;;7.22;1.15;;;21.10;67.60;;;;;;5042377;28;20029;-49
2023/08/03 05:37:17;;;;;;;5.53;1.50;;;21.10;67.60;;;;;;5038882;28;20127;-50
2023/08/03 05:39:43;;;;;;;5.07;1.20;;;21.10;67.80;;;;;;5035774;28;20029;-52
2023/08/03 05:42:12;;;;;;;5.20;1.40;;;21.10;68.00;;;;;;5036201;28;20124;-51
2023/08/03 05:44:38;;;;;;;6.80;1.30;;;21.10;68.00;;;;;;5036808;28;20056;-50
2023/08/03 05:47:06;;;;;;;4.40;1.58;;;21.10;67.30;;;;;;5038456;28;20041;-50
2023/08/03 05:49:31;;;;;;;5.35;1.35;;;21.10;67.70;;;;;;5037536;28;20494;-52
2023/08/03 05:51:57;;;;;;;7.28;1.25;;;21.10;68.20;;;;;;5041233;28;20036;-51
2023/08/03 05:54:22;;;;;;;5.05;1.73;;;21.10;68.00;;;;;;5041493;28;20478;-51
2023/08/03 05:56:48;;;;;;;3.90;1.55;;;21.10;68.00;;;;;;5040083;28;20045;-50
2023/08/03 05:59:19;;;;;;;5.10;0.95;;;21.10;67.60;;;;;;5035282;28;20025;-51
2023/08/03 06:01:47;;;;;;;5.53;1.17;;;21.10;67.00;;;;;;5037670;28;20039;-50
2023/08/03 06:04:16;;;;;;;4.60;0.93;;;21.10;67.20;;;;;;5039854;28;20049;-52
2023/08/03 06:06:42;;;;;;;3.20;1.17;;;21.10;67.30;;;;;;5033904;28;20039;-51
2023/08/03 06:09:11;;;;;;;2.92;1.05;;;21.00;67.30;;;;;;5036299;28;20056;-53
2023/08/03 06:11:37;;;;;;;6.10;1.10;;;21.00;67.10;;;;;;5035937;28;20124;-49
2023/08/03 06:14:03;;;;;;;2.90;1.08;;;21.00;66.90;;;;;;5037831;28;20116;-51
2023/08/03 06:16:28;;;;;;;4.97;2.05;;;21.00;67.20;;;;;;5039707;28;20029;-52
2023/08/03 06:18:56;;;;;;;4.80;1.00;;;21.00;67.40;;;;;;5042699;28;20518;-51
2023/08/03 06:21:25;;;;;;;4.72;1.10;;;21.00;67.50;;;;;;5039690;28;20049;-51
2023/08/03 06:23:54;;;;;;;6.25;1.10;;;21.00;67.60;;;;;;5035105;28;20149;-53
2023/08/03 06:26:20;;;;;;;4.75;1.27;;;21.00;67.40;;;;;;5035480;28;20028;-52
2023/08/03 06:28:47;;;;;;;6.18;0.88;;;21.00;66.90;;;;;;5035719;28;20025;-51
2023/08/03 06:31:33;;;;;;;4.45;1.15;;;20.90;66.50;;;;;;5040639;28;20037;-51
2023/08/03 06:33:59;;;;;;;4.22;1.65;;;20.90;67.00;;;;;;5040491;28;20033;-51
2023/08/03 06:36:26;;;;;;;6.22;1.50;;;20.90;66.80;;;;;;5037050;28;20111;-52
2023/08/03 06:38:51;;;;;;;7.20;1.55;;;20.90;66.90;;;;;;5028161;28;20053;-54
2023/08/03 06:41:17;;;;;;;11.48;1.60;;;20.90;67.00;;;;;;5037768;28;20063;-52
2023/08/03 06:43:44;;;;;;;3.78;1.05;;;20.90;67.60;;;;;;5036618;28;20087;-51
2023/08/03 06:46:10;;;;;;;5.72;1.20;;;20.80;66.50;;;;;;5039822;28;20044;-53
2023/08/03 06:48:36;;;;;;;5.25;0.75;;;20.80;66.80;;;;;;5037546;28;20131;-50
2023/08/03 06:51:02;;;;;;;4.88;1.05;;;20.80;67.30;;;;;;5040849;28;20764;-52
2023/08/03 06:53:29;;;;;;;4.45;0.82;;;20.90;67.80;;;;;;5035465;28;20025;-49
2023/08/03 06:55:55;;;;;;;1.98;0.77;;;20.80;67.40;;;;;;5032565;28;20107;-50
2023/08/03 06:58:20;;;;;;;3.13;0.85;;;20.80;67.20;;;;;;5033941;28;20339;-52
2023/08/03 07:00:47;;;;;;;7.53;1.85;;;20.90;67.20;;;;;;5037631;28;20060;-49
2023/08/03 07:03:13;;;;;;;5.18;1.38;;;20.90;67.80;;;;;;5034229;28;20045;-50
2023/08/03 07:05:39;;;;;;;4.85;0.60;;;20.90;67.10;;;;;;5035435;28;20178;-50
2023/08/03 07:08:05;;;;;;;5.80;1.15;;;20.80;66.20;;;;;;5034769;28;20033;-51
2023/08/03 07:10:30;;;;;;;2.80;0.90;;;20.80;66.50;;;;;;5037084;28;20036;-50
2023/08/03 07:12:56;;;;;;;2.10;0.70;;;20.80;66.70;;;;;;5037188;28;20021;-49
2023/08/03 07:15:21;;;;;;;3.10;0.98;;;20.90;66.90;;;;;;5036766;28;20508;-49
2023/08/03 07:17:47;;;;;;;2.53;0.77;;;20.90;66.60;;;;;;5035319;28;20056;-50
2023/08/03 07:20:13;;;;;;;3.05;1.50;;;20.90;66.50;;;;;;5035472;28;20224;-50
2023/08/03 07:22:39;;;;;;;6.75;0.93;;;20.90;66.50;;;;;;5036809;28;20061;-51
2023/08/03 07:25:05;;;;;;;3.80;1.00;;;21.00;66.60;;;;;;5033243;28;20545;-53
2023/08/03 07:27:32;;;;;;;4.22;0.90;;;21.00;66.60;;;;;;5038343;28;20071;-49
2023/08/03 07:29:57;;;;;;;2.08;0.70;;;21.00;66.50;;;;;;5037438;28;20115;-54
2023/08/03 07:32:23;;;;;;;2.15;0.88;;;21.00;66.50;;;;;;5036902;28;20161;-54
2023/08/03 07:34:49;;;;;;;4.60;1.13;;;21.00;66.60;;;;;;5035755;28;20033;-54
2023/08/03 07:37:14;;;;;;;3.08;0.90;;;21.00;66.70;;;;;;5034665;28;20448;-51
2023/08/03 07:39:40;;;;;;;3.35;1.35;;;21.00;66.70;;;;;;5032423;28;20024;-51
2023/08/03 07:42:06;;;;;;;5.90;0.73;;;21.00;66.60;;;;;;5036032;28;20033;-52
2023/08/03 07:44:32;;;;;;;3.70;0.82;;;21.00;66.60;;;;;;5033650;28;20036;-51
2023/08/03 07:46:57;;;;;;;4.53;0.77;;;21.00;66.60;;;;;;5037988;28;20040;-54
2023/08/03 07:49:23;;;;;;;3.53;0.88;;;21.00;66.50;;;;;;5039017;28;20033;-53
2023/08/03 07:51:48;;;;;;;2.50;0.75;;;21.00;66.50;;;;;;5037457;28;20064;-51
2023/08/03 07:54:15;;;;;;;3.80;0.90;;;21.00;66.70;;;;;;5038146;28;20055;-51
2023/08/03 07:56:41;;;;;;;1.88;1.00;;;21.00;66.70;;;;;;5026382;28;20039;-51
2023/08/03 07:59:07;;;;;;;3.90;0.77;;;21.00;66.90;;;;;;5032242;28;20033;-51
2023/08/03 08:01:32;;;;;;;3.47;0.88;;;21.00;66.90;;;;;;5035509;28;20051;-54
2023/08/03 08:03:58;;;;;;;1.50;0.57;;;21.00;66.90;;;;;;5028337;28;20552;-51
2023/08/03 08:06:24;;;;;;;3.15;0.82;;;21.00;66.90;;;;;;5036225;28;20029;-51
2023/08/03 08:08:51;;;;;;;2.78;0.60;;;21.00;66.60;;;;;;5034431;28;20059;-52
2023/08/03 08:11:18;;;;;;;2.05;0.80;;;21.00;66.60;;;;;;5034474;28;20032;-51
2023/08/03 08:13:44;;;;;;;1.67;0.80;;;21.00;66.50;;;;;;5029438;28;20025;-51
2023/08/03 08:16:11;;;;;;;3.28;0.80;;;21.00;66.60;;;;;;5033659;28;20037;-51
2023/08/03 08:18:37;;;;;;;5.68;0.70;;;20.90;66.70;;;;;;5036294;28;20025;-51
2023/08/03 08:21:08;;;;;;;3.10;0.70;;;21.00;66.80;;;;;;5038100;28;20238;-51
2023/08/03 08:23:35;;;;;;;2.10;0.57;;;21.00;66.90;;;;;;5034620;28;20607;-51
2023/08/03 08:26:00;;;;;;;1.70;0.82;;;21.00;66.90;;;;;;5035750;28;20029;-51
2023/08/03 08:28:29;;;;;;;1.58;0.60;;;21.00;67.30;;;;;;5030907;28;20035;-52
2023/08/03 08:30:54;;;;;;;2.85;0.52;;;21.00;67.20;;;;;;5036652;28;20032;-52
2023/08/03 08:33:20;;;;;;;3.22;0.50;;;21.00;67.10;;;;;;5037765;28;20021;-51
2023/08/03 08:35:48;;;;;;;2.13;0.52;;;21.00;67.30;;;;;;5030568;28;20033;-54
2023/08/03 08:38:15;;;;;;;2.90;1.33;;;21.00;67.40;;;;;;5033060;28;20048;-52
2023/08/03 08:40:42;;;;;;;3.17;0.85;;;21.00;67.30;;;;;;5030975;28;20028;-53
2023/08/03 08:43:08;;;;;;;2.00;0.68;;;21.10;67.40;;;;;;5042356;28;20028;-52
2023/08/03 08:45:35;;;;;;;2.35;0.73;;;21.00;67.10;;;;;;5037870;28;20037;-53
2023/08/03 08:48:01;;;;;;;1.63;0.57;;;21.10;67.30;;;;;;5037484;28;20071;-54
2023/08/03 08:50:27;;;;;;;1.55;0.40;;;21.10;67.10;;;;;;5037183;28;20021;-55
2023/08/03 08:52:53;;;;;;;2.83;0.65;;;21.10;66.80;;;;;;5034571;28;20033;-51
2023/08/03 08:55:22;;;;;;;4.18;0.60;;;21.10;67.50;;;;;;5035896;28;20257;-51
2023/08/03 08:57:48;;;;;;;1.00;0.60;;;21.00;67.40;;;;;;5028901;28;20034;-51
2023/08/03 09:00:14;;;;;;;2.17;0.60;;;21.10;67.50;;;;;;5033616;28;20087;-52
2023/08/03 09:02:40;;;;;;;1.98;0.90;;;21.00;67.40;;;;;;5034184;28;20121;-51
2023/08/03 09:05:10;;;;;;;0.85;0.30;;;21.00;67.10;;;;;;5034230;28;20553;-53
2023/08/03 09:07:36;;;;;;;3.75;0.60;;;21.00;67.10;;;;;;5029794;28;20029;-53
2023/08/03 09:10:02;;;;;;;1.92;0.57;;;21.10;66.60;;;;;;5030604;28;20037;-53
2023/08/03 09:12:27;;;;;;;3.47;0.90;;;21.00;66.70;;;;;;5038752;28;20625;-53
2023/08/03 09:14:55;;;;;;;2.67;0.47;;;21.00;66.80;;;;;;5038347;28;20033;-51
2023/08/03 09:17:22;;;;;;;0.98;0.60;;;21.00;66.80;;;;;;5038244;28;20040;-52
2023/08/03 09:19:48;;;;;;;2.10;0.50;;;21.10;66.90;;;;;;5039361;28;20491;-52
2023/08/03 09:22:14;;;;;;;1.27;0.43;;;21.00;67.00;;;;;;5040396;28;20047;-54
2023/08/03 09:24:40;;;;;;;1.33;0.50;;;21.10;67.00;;;;;;5039019;28;20065;-52
2023/08/03 09:27:06;;;;;;;1.42;0.57;;;21.00;66.90;;;;;;5037033;28;20114;-54
2023/08/03 09:29:32;;;;;;;2.58;0.50;;;21.10;67.10;;;;;;5036338;28;20577;-54
2023/08/03 09:32:02;;;;;;;1.33;0.60;;;21.10;67.00;;;;;;5040455;28;20033;-51
2023/08/03 09:34:44;;;;;;;1.33;0.50;;;21.10;66.90;;;;;;5037938;28;20033;-51
2023/08/03 09:37:12;;;;;;;2.10;0.63;;;21.10;66.80;;;;;;5035004;28;20094;-51
2023/08/03 09:39:39;;;;;;;1.13;0.50;;;21.10;66.50;;;;;;5026735;28;20526;-51
2023/08/03 09:42:06;;;;;;;1.85;0.90;;;21.10;66.80;;;;;;5003881;28;20037;-54
2023/08/03 09:44:36;;;;;;;1.98;0.40;;;21.10;66.70;;;;;;5039996;28;20127;-52
2023/08/03 09:47:03;;;;;;;0.68;0.40;;;21.10;66.70;;;;;;5041436;28;20029;-51
2023/08/03 09:49:30;;;;;;;1.17;0.45;;;21.10;66.90;;;;;;5038725;28;20037;-59
2023/08/03 09:51:59;;;;;;;1.60;0.40;;;21.10;66.90;;;;;;5040189;28;20777;-52
2023/08/03 09:54:39;;;;;;;1.00;0.40;;;21.10;66.90;;;;;;5038750;28;20036;-53
2023/08/03 09:57:09;;;;;;;2.58;0.60;;;21.10;66.90;;;;;;5028703;28;20067;-53
2023/08/03 09:59:40;;;;;;;2.55;0.55;;;21.00;66.90;;;;;;5037376;28;20415;-52
2023/08/03 10:02:11;;;;;;;1.85;0.30;;;21.00;66.90;;;;;;5040573;28;20386;-51
2023/08/03 10:04:42;;;;;;;3.08;0.80;;;21.10;66.70;;;;;;5031487;28;20029;-51
2023/08/03 10:07:10;;;;;;;2.17;0.68;;;21.10;66.90;;;;;;5034931;28;20059;-51
2023/08/03 10:09:50;;;;;;;4.88;0.80;;;21.00;66.70;;;;;;5037454;28;20037;-51
2023/08/03 10:12:27;;;;;;;1.92;0.50;;;21.10;66.70;;;;;;5040090;28;20581;-51
2023/08/03 10:14:54;;;;;;;0.80;0.40;;;21.10;66.40;;;;;;5039111;28;20078;-51
2023/08/03 10:17:20;;;;;;;2.13;0.70;;;21.10;66.60;;;;;;5039869;28;20037;-53
2023/08/03 10:19:47;;;;;;;2.67;0.60;;;21.10;66.70;;;;;;5037879;28;20074;-52
2023/08/03 10:22:13;;;;;;;3.35;0.60;;;21.10;66.90;;;;;;5036177;28;20033;-54
2023/08/03 10:24:38;;;;;;;2.55;0.75;;;21.10;66.90;;;;;;5034009;28;20047;-52
2023/08/03 10:27:18;;;;;;;1.65;0.52;;;21.10;66.90;;;;;;5036944;28;20454;-52
2023/08/03 10:29:49;;;;;;;1.73;0.80;;;21.10;66.10;;;;;;5036202;28;20751;-51
2023/08/03 10:32:19;;;;;;;4.05;0.80;;;21.10;65.80;;;;;;5040430;28;20108;-51
2023/08/03 10:34:44;;;;;;;1.60;0.50;;;21.00;66.50;;;;;;5033574;28;21434;-51
2023/08/03 10:37:13;;;;;;;2.00;0.60;;;21.10;66.70;;;;;;5040617;28;20090;-51
2023/08/03 10:39:52;;;;;;;1.95;0.55;;;21.10;66.40;;;;;;5036061;28;20029;-51
2023/08/03 10:42:18;;;;;;;1.20;0.50;;;21.10;66.70;;;;;;5037449;28;20037;-51
2023/08/03 10:44:43;;;;;;;2.17;0.50;;;21.10;66.90;;;;;;5038280;28;20261;-51
2023/08/03 10:47:21;;;;;;;2.47;1.15;;;21.10;66.70;;;;;;5037714;28;20040;-52
2023/08/03 10:49:52;;;;;;;2.13;0.43;;;21.10;66.70;;;;;;5036477;28;20029;-51
2023/08/03 10:52:22;;;;;;;0.82;0.40;;;21.10;66.50;;;;;;5034759;28;20036;-51
2023/08/03 10:54:48;;;;;;;2.08;0.60;;;21.10;66.90;;;;;;5031296;28;20029;-51
2023/08/03 10:57:15;;;;;;;1.30;0.50;;;21.10;66.90;;;;;;5036859;28;20033;-50
2023/08/03 10:59:41;;;;;;;1.65;0.57;;;21.10;67.00;;;;;;5033495;28;20037;-51
2023/08/03 11:02:25;;;;;;;2.58;0.50;;;21.10;66.80;;;;;;5031338;28;20402;-54
2023/08/03 11:05:12;;;;;;;5.65;0.68;;;21.10;67.10;;;;;;5034777;28;20601;-51
2023/08/03 11:07:40;;;;;;;2.42;0.50;;;21.20;67.10;;;;;;5032237;28;20033;-51
2023/08/03 11:10:09;;;;;;;1.10;0.63;;;21.10;67.10;;;;;;5036903;28;20075;-55
2023/08/03 11:12:35;;;;;;;2.33;0.60;;;21.10;67.20;;;;;;5035481;28;20033;-52
2023/08/03 11:15:02;;;;;;;1.70;0.50;;;21.20;66.50;;;;;;5040122;28;20033;-52
2023/08/03 11:17:30;;;;;;;1.10;0.45;;;21.10;66.70;;;;;;5038666;28;20029;-51
2023/08/03 11:19:57;;;;;;;1.33;0.40;;;21.10;66.10;;;;;;5039730;28;20037;-53
2023/08/03 11:22:23;;;;;;;1.10;0.30;;;21.10;66.60;;;;;;5040400;28;20029;-52
2023/08/03 11:24:51;;;;;;;1.10;0.50;;;21.10;66.60;;;;;;5035997;28;20037;-54
2023/08/03 11:27:18;;;;;;;4.63;0.35;;;21.10;66.90;;;;;;5038218;28;20044;-51
2023/08/03 11:29:44;;;;;;;2.25;0.75;;;21.10;66.90;;;;;;5036874;28;20032;-52
2023/08/03 11:32:13;;;;;;;2.75;0.40;;;21.10;66.70;;;;;;5035696;28;20387;-54
2023/08/03 11:34:39;;;;;;;1.25;0.50;;;21.10;66.70;;;;;;5035979;28;20037;-51
2023/08/03 11:37:05;;;;;;;3.75;0.73;;;21.10;67.00;;;;;;5034008;28;20145;-51
2023/08/03 11:39:31;;;;;;;1.65;0.30;;;21.10;66.80;;;;;;5034044;28;20372;-52
2023/08/03 11:41:57;;;;;;;1.45;0.55;;;21.10;66.70;;;;;;5031036;28;20090;-54
2023/08/03 11:44:24;;;;;;;1.25;0.40;;;21.10;65.70;;;;;;5029262;28;20559;-52
2023/08/03 11:47:07;;;;;;;2.88;0.40;;;21.10;66.40;;;;;;5034285;28;20118;-52
2023/08/03 11:49:34;;;;;;;1.92;0.40;;;21.10;66.50;;;;;;5032978;28;20041;-51
2023/08/03 11:52:00;;;;;;;2.25;0.30;;;21.10;66.90;;;;;;5034108;28;20039;-59
2023/08/03 11:54:31;;;;;;;2.05;0.63;;;21.10;66.90;;;;;;5039407;28;20033;-52
2023/08/03 11:58:07;;;;;;;0.93;0.50;;;21.10;66.90;;;;;;5018055;28;20041;-52
2023/08/03 11:59:48;;;;;;;2.10;0.47;;;21.20;66.50;;;;;;5016502;28;20071;-54
2023/08/03 12:02:13;;;;;;;1.63;0.40;;;21.20;66.40;;;;;;5036665;28;20040;-52
2023/08/03 12:04:40;;;;;;;1.42;0.50;;;21.20;66.50;;;;;;5036293;28;20036;-53
2023/08/03 12:07:06;;;;;;;1.63;0.45;;;21.10;66.40;;;;;;5030048;28;20107;-52
2023/08/03 12:09:38;;;;;;;0.90;0.30;;;21.20;66.30;;;;;;5033218;28;20025;-52
2023/08/03 12:12:09;;;;;;;1.15;0.40;;;21.20;66.30;;;;;;5022948;28;20113;-52
2023/08/03 12:14:34;;;;;;;2.40;0.30;;;21.20;66.50;;;;;;5032161;28;20104;-52
2023/08/03 12:17:01;;;;;;;2.35;0.40;;;21.20;66.50;;;;;;5026308;28;20033;-55
2023/08/03 12:19:32;;;;;;;1.55;0.43;;;21.10;66.50;;;;;;5021872;28;20029;-52
2023/08/03 12:22:02;;;;;;;1.13;0.30;;;21.10;66.40;;;;;;5027957;28;20051;-54
2023/08/03 12:24:28;;;;;;;3.30;0.40;;;21.10;66.10;;;;;;5026092;28;20044;-52
2023/08/03 12:26:54;;;;;;;2.72;0.50;;;21.20;66.40;;;;;;5020617;28;20041;-54
2023/08/03 12:29:20;;;;;;;0.25;0.20;;;21.10;65.80;;;;;;5020047;28;20037;-52
2023/08/03 12:31:46;;;;;;;1.65;0.57;;;21.10;66.10;;;;;;5023473;28;20442;-52
2023/08/03 12:34:11;;;;;;;1.17;0.68;;;21.10;66.10;;;;;;5026718;28;20513;-51
2023/08/03 12:36:37;;;;;;;8.80;0.35;;;21.20;66.00;;;;;;5023535;28;20034;-53
2023/08/03 12:39:05;;;;;;;3.78;0.40;;;21.10;65.80;;;;;;5023548;28;20447;-54
2023/08/03 12:41:31;;;;;;;3.05;0.45;;;21.20;65.60;;;;;;5030153;28;20394;-53
2023/08/03 12:43:56;;;;;;;2.38;0.35;;;21.10;65.80;;;;;;5032890;28;20056;-52
2023/08/03 12:46:22;;;;;;;1.35;0.20;;;21.10;66.00;;;;;;5034536;28;20094;-52